createdAt,value
2023-01-28T00:01:27.422Z,3.58
2023-01-28T00:03:53.971Z,5.03
2023-01-28T00:06:20.601Z,4.15
2023-01-28T00:08:47.291Z,4.63
2023-01-28T00:11:14.143Z,4.20
2023-01-28T00:13:41.770Z,4.38
2023-01-28T00:16:09.880Z,4.53
2023-01-28T00:18:36.966Z,4.68
2023-01-28T00:21:04.941Z,4.72
2023-01-28T00:23:33.760Z,6.03
2023-01-28T00:26:01.257Z,4.05
2023-01-28T00:28:28.139Z,4.18
2023-01-28T00:30:54.877Z,4.95
2023-01-28T00:33:21.633Z,4.47
2023-01-28T00:35:48.996Z,4.80
2023-01-28T00:38:16.068Z,4.75
2023-01-28T00:40:42.604Z,4.10
2023-01-28T00:43:09.217Z,4.63
2023-01-28T00:45:36.424Z,4.72
2023-01-28T00:48:02.999Z,3.97
2023-01-28T00:50:29.565Z,4.45
2023-01-28T00:52:56.111Z,4.28
2023-01-28T00:55:24.344Z,5.32
2023-01-28T00:57:51.523Z,3.80
2023-01-28T01:00:20.455Z,4.55
2023-01-28T01:02:48.561Z,4.78
2023-01-28T01:05:15.477Z,4.25
2023-01-28T01:07:42.436Z,4.50
2023-01-28T01:10:14.910Z,4.65
2023-01-28T01:12:41.544Z,4.60
2023-01-28T01:15:10.446Z,3.97
2023-01-28T01:17:38.694Z,4.00
2023-01-28T01:20:09.970Z,4.47
2023-01-28T01:22:36.731Z,4.03
2023-01-28T01:25:04.704Z,4.15
2023-01-28T01:27:31.975Z,4.45
2023-01-28T01:29:59.068Z,4.47
2023-01-28T01:32:30.348Z,4.28
2023-01-28T01:34:56.889Z,6.15
2023-01-28T01:37:24.980Z,4.53
2023-01-28T01:39:51.658Z,4.03
2023-01-28T01:42:18.296Z,4.45
2023-01-28T01:44:50.880Z,3.78
2023-01-28T01:47:18.261Z,4.50
2023-01-28T01:49:44.983Z,5.18
2023-01-28T01:52:17.318Z,4.38
2023-01-28T01:54:47.629Z,4.17
2023-01-28T01:57:17.538Z,4.03
2023-01-28T01:59:44.649Z,3.85
2023-01-28T02:02:11.844Z,3.95
2023-01-28T02:04:44.726Z,4.50
2023-01-28T02:07:16.511Z,4.07
2023-01-28T02:09:43.290Z,4.57
2023-01-28T02:12:18.561Z,4.10
2023-01-28T02:14:48.815Z,4.07
2023-01-28T02:17:16.025Z,3.78
2023-01-28T02:19:58.565Z,3.97
2023-01-28T02:22:43.709Z,4.03
2023-01-28T02:25:32.697Z,4.03
2023-01-28T02:28:10.300Z,4.53
2023-01-28T02:30:42.281Z,3.55
2023-01-28T02:33:14.444Z,4.20
2023-01-28T02:35:53.872Z,5.45
2023-01-28T02:38:26.069Z,4.15
2023-01-28T02:41:02.252Z,4.07
2023-01-28T02:43:31.186Z,3.80
2023-01-28T02:46:16.550Z,4.40
2023-01-28T02:48:43.304Z,3.63
2023-01-28T02:51:17.056Z,3.42
2023-01-28T02:53:57.892Z,3.70
2023-01-28T02:56:56.809Z,4.05
2023-01-28T02:59:37.118Z,3.55
2023-01-28T03:02:10.354Z,3.70
2023-01-28T03:04:44.236Z,3.88
2023-01-28T03:07:12.761Z,3.75
2023-01-28T03:09:40.949Z,3.88
2023-01-28T03:12:30.793Z,3.25
2023-01-28T03:15:20.143Z,3.53
2023-01-28T03:18:14.237Z,4.13
2023-01-28T03:21:07.118Z,3.40
2023-01-28T03:24:00.577Z,3.05
2023-01-28T03:26:47.350Z,3.20
2023-01-28T03:29:33.807Z,3.53
2023-01-28T03:32:24.010Z,4.70
2023-01-28T03:35:09.951Z,3.60
2023-01-28T03:37:37.391Z,3.70
2023-01-28T03:40:18.942Z,3.10
2023-01-28T03:42:45.596Z,3.25
2023-01-28T03:45:28.573Z,3.17
2023-01-28T03:47:55.429Z,2.67
2023-01-28T03:50:22.098Z,3.03
2023-01-28T03:53:14.912Z,3.60
2023-01-28T03:55:48.812Z,3.38
2023-01-28T03:58:16.349Z,3.80
2023-01-28T04:00:43.650Z,3.90
2023-01-28T04:03:18.052Z,3.45
2023-01-28T04:06:07.002Z,3.17
2023-01-28T04:08:59.517Z,3.05
2023-01-28T04:11:31.442Z,3.15
2023-01-28T04:14:01.003Z,3.50
2023-01-28T04:16:36.381Z,3.08
2023-01-28T04:19:03.308Z,3.83
2023-01-28T04:21:30.829Z,3.20
2023-01-28T04:23:59.669Z,3.42
2023-01-28T04:26:26.398Z,3.15
2023-01-28T04:28:53.178Z,2.88
2023-01-28T04:31:20.202Z,3.00
2023-01-28T04:34:05.385Z,3.03
2023-01-28T04:36:40.570Z,2.90
2023-01-28T04:39:25.707Z,2.65
2023-01-28T04:42:10.182Z,2.55
2023-01-28T04:44:55.699Z,2.65
2023-01-28T04:47:37.847Z,2.95
2023-01-28T04:50:24.813Z,3.05
2023-01-28T04:53:12.633Z,3.13
2023-01-28T04:56:05.368Z,2.70
2023-01-28T04:58:34.542Z,2.90
2023-01-28T05:03:34.725Z,2.58
2023-01-28T05:06:03.012Z,3.17
2023-01-28T05:08:38.962Z,2.40
2023-01-28T05:11:05.997Z,2.50
2023-01-28T05:13:32.894Z,2.20
2023-01-28T05:15:59.952Z,2.40
2023-01-28T05:18:26.756Z,2.40
2023-01-28T05:21:06.065Z,2.53
2023-01-28T05:23:34.885Z,2.33
2023-01-28T05:26:01.754Z,2.63
2023-01-28T05:28:29.351Z,3.05
2023-01-28T05:30:57.606Z,2.30
2023-01-28T05:33:24.497Z,2.35
2023-01-28T05:35:51.571Z,2.40
2023-01-28T05:38:19.901Z,2.88
2023-01-28T05:40:47.561Z,2.72
2023-01-28T05:43:14.738Z,3.05
2023-01-28T05:45:47.736Z,3.00
2023-01-28T05:48:22.833Z,2.33
2023-01-28T05:51:08.169Z,2.83
2023-01-28T05:53:37.164Z,3.03
2023-01-28T05:56:04.251Z,2.95
2023-01-28T05:58:32.451Z,2.75
2023-01-28T06:01:02.528Z,3.33
2023-01-28T06:03:37.743Z,3.30
2023-01-28T06:06:04.429Z,4.75
2023-01-28T06:08:31.575Z,3.97
2023-01-28T06:10:59.394Z,4.03
2023-01-28T06:13:26.727Z,4.40
2023-01-28T06:16:12.186Z,4.18
2023-01-28T06:18:59.707Z,4.65
2023-01-28T06:21:28.999Z,5.13
2023-01-28T06:23:57.818Z,5.35
2023-01-28T06:26:24.669Z,6.32
2023-01-28T06:28:51.724Z,6.18
2023-01-28T06:31:19.150Z,5.03
2023-01-28T06:33:46.063Z,5.38
2023-01-28T06:36:14.049Z,6.13
2023-01-28T06:38:40.604Z,6.35
2023-01-28T06:41:07.232Z,6.47
2023-01-28T06:43:34.219Z,6.88
2023-01-28T06:46:01.427Z,7.93
2023-01-28T06:48:28.715Z,6.40
2023-01-28T06:50:55.257Z,7.72
2023-01-28T06:53:22.161Z,7.80
2023-01-28T06:55:49.297Z,8.05
2023-01-28T06:58:15.877Z,7.85
2023-01-28T07:00:42.410Z,7.60
2023-01-28T07:03:09.076Z,8.48
2023-01-28T07:05:35.670Z,7.72
2023-01-28T07:08:02.685Z,7.88
2023-01-28T07:10:29.508Z,7.57
2023-01-28T07:12:56.069Z,8.55
2023-01-28T07:15:22.676Z,6.63
2023-01-28T07:17:49.260Z,5.30
2023-01-28T07:20:16.653Z,5.20
2023-01-28T07:22:44.117Z,4.88
2023-01-28T07:25:12.001Z,4.68
2023-01-28T07:27:38.812Z,5.03
2023-01-28T07:30:06.155Z,4.90
2023-01-28T07:32:32.779Z,2.70
2023-01-28T07:34:59.336Z,2.75
2023-01-28T07:37:25.906Z,2.65
2023-01-28T07:39:52.513Z,3.00
2023-01-28T07:42:19.174Z,2.83
2023-01-28T07:44:46.893Z,3.00
2023-01-28T07:47:13.532Z,3.40
2023-01-28T07:49:40.194Z,3.22
2023-01-28T07:52:07.645Z,3.53
2023-01-28T07:54:34.976Z,3.38
2023-01-28T07:57:01.591Z,4.15
2023-01-28T07:59:28.253Z,3.30
2023-01-28T08:01:55.146Z,3.15
2023-01-28T08:04:21.941Z,3.45
2023-01-28T08:06:48.637Z,2.47
2023-01-28T08:09:15.215Z,2.15
2023-01-28T08:11:42.455Z,2.55
2023-01-28T08:14:11.205Z,2.05
2023-01-28T08:16:37.912Z,2.50
2023-01-28T08:19:04.483Z,2.30
2023-01-28T08:21:31.072Z,3.40
2023-01-28T08:23:57.875Z,2.30
2023-01-28T08:26:24.590Z,2.20
2023-01-28T08:28:51.728Z,2.40
2023-01-28T08:31:18.539Z,2.88
2023-01-28T08:33:45.239Z,2.83
2023-01-28T08:36:12.097Z,2.20
2023-01-28T08:38:38.717Z,2.10
2023-01-28T08:41:05.461Z,2.28
2023-01-28T08:43:32.148Z,1.90
2023-01-28T08:45:58.874Z,2.72
2023-01-28T08:48:25.565Z,1.95
2023-01-28T08:50:52.068Z,2.25
2023-01-28T08:53:20.482Z,2.33
2023-01-28T08:55:47.301Z,2.40
2023-01-28T08:58:16.163Z,2.40
2023-01-28T09:00:43.693Z,2.45
2023-01-28T09:03:10.461Z,2.00
2023-01-28T09:05:37.871Z,2.35
2023-01-28T09:08:13.214Z,2.30
2023-01-28T09:10:41.978Z,1.70
2023-01-28T09:13:11.386Z,2.42
2023-01-28T09:15:40.991Z,2.10
2023-01-28T09:18:07.693Z,1.80
2023-01-28T09:20:34.439Z,1.75
2023-01-28T09:23:02.035Z,1.70
2023-01-28T09:25:28.620Z,2.08
2023-01-28T09:27:55.383Z,1.70
2023-01-28T09:30:22.141Z,2.22
2023-01-28T09:32:53.058Z,2.13
2023-01-28T09:35:19.813Z,2.38
2023-01-28T09:37:47.005Z,2.90
2023-01-28T09:40:19.374Z,2.88
2023-01-28T09:43:12.425Z,2.33
2023-01-28T09:45:43.198Z,2.33
2023-01-28T09:48:25.004Z,2.28
2023-01-28T09:50:54.026Z,2.15
2023-01-28T09:53:24.060Z,2.45
2023-01-28T09:55:56.891Z,2.20
2023-01-28T09:58:23.515Z,2.63
2023-01-28T10:01:00.608Z,2.45
2023-01-28T10:04:02.565Z,1.88
2023-01-28T10:07:12.060Z,1.77
2023-01-28T10:09:49.101Z,1.88
2023-01-28T10:12:27.645Z,1.67
2023-01-28T10:15:38.657Z,1.90
2023-01-28T10:18:17.272Z,1.30
2023-01-28T10:20:54.597Z,1.20
2023-01-28T10:23:25.716Z,3.00
2023-01-28T10:25:54.775Z,1.98
2023-01-28T10:28:24.653Z,2.08
2023-01-28T10:30:51.441Z,1.40
2023-01-28T10:33:22.547Z,1.27
2023-01-28T10:38:17.928Z,1.08
2023-01-28T10:40:48.127Z,1.33
2023-01-28T10:43:21.357Z,1.15
2023-01-28T10:46:08.597Z,1.40
2023-01-28T10:49:21.909Z,1.40
2023-01-28T10:51:48.608Z,1.35
2023-01-28T10:54:23.329Z,1.40
2023-01-28T10:57:00.120Z,1.67
2023-01-28T10:59:31.622Z,1.33
2023-01-28T11:02:00.157Z,1.73
2023-01-28T11:04:28.361Z,1.58
2023-01-28T11:07:02.239Z,1.55
2023-01-28T11:09:31.307Z,1.92
2023-01-28T11:12:20.992Z,1.95
2023-01-28T11:14:52.729Z,1.50
2023-01-28T11:17:20.410Z,2.40
2023-01-28T11:19:47.460Z,1.83
2023-01-28T11:22:23.749Z,1.35
2023-01-28T11:24:50.542Z,2.38
2023-01-28T11:27:19.007Z,1.83
2023-01-28T11:29:45.724Z,1.50
2023-01-28T11:32:19.816Z,1.25
2023-01-28T11:34:57.264Z,1.40
2023-01-28T11:37:25.823Z,1.50
2023-01-28T11:40:20.043Z,1.50
2023-01-28T11:42:50.249Z,1.80
2023-01-28T11:45:25.813Z,1.30
2023-01-28T11:48:30.104Z,1.38
2023-01-28T11:51:24.710Z,1.30
2023-01-28T11:54:03.113Z,1.20
2023-01-28T11:56:42.520Z,1.67
2023-01-28T11:59:22.219Z,5.20
2023-01-28T12:02:31.558Z,2.20
2023-01-28T12:05:19.823Z,1.33
2023-01-28T12:08:25.397Z,1.50
2023-01-28T12:11:08.341Z,1.95
2023-01-28T12:13:34.781Z,1.75
2023-01-28T12:16:16.059Z,1.90
2023-01-28T12:19:14.850Z,1.38
2023-01-28T12:21:57.404Z,1.50
2023-01-28T12:24:51.957Z,1.58
2023-01-28T12:28:07.515Z,1.70
2023-01-28T12:30:40.208Z,1.63
2023-01-28T12:33:44.091Z,1.50
2023-01-28T12:36:27.595Z,1.60
2023-01-28T12:39:20.663Z,1.48
2023-01-28T12:41:51.213Z,1.50
2023-01-28T12:44:32.909Z,1.60
2023-01-28T12:47:07.418Z,1.70
2023-01-28T12:49:42.555Z,1.92
2023-01-28T12:52:19.526Z,1.65
2023-01-28T12:55:14.123Z,2.05
2023-01-28T12:57:41.317Z,1.20
2023-01-28T13:00:23.127Z,1.25
2023-01-28T13:03:05.313Z,1.50
2023-01-28T13:05:36.857Z,1.40
2023-01-28T13:08:06.690Z,1.10
2023-01-28T13:10:40.985Z,1.38
2023-01-28T13:13:07.885Z,1.67
2023-01-28T13:15:36.986Z,1.50
2023-01-28T13:18:05.463Z,1.20
2023-01-28T13:20:47.391Z,1.58
2023-01-28T13:23:27.325Z,0.90
2023-01-28T13:25:55.495Z,1.00
2023-01-28T13:28:31.219Z,0.85
2023-01-28T13:31:07.064Z,0.90
2023-01-28T13:33:40.973Z,0.98
2023-01-28T13:36:46.180Z,1.95
2023-01-28T13:39:21.511Z,1.17
2023-01-28T13:41:50.433Z,1.10
2023-01-28T13:44:26.059Z,0.98
2023-01-28T13:46:53.959Z,0.98
2023-01-28T13:49:26.365Z,2.55
2023-01-28T13:52:28.332Z,1.23
2023-01-28T13:55:03.639Z,1.20
2023-01-28T13:57:49.253Z,1.10
2023-01-28T14:00:34.282Z,1.00
2023-01-28T14:03:16.108Z,0.93
2023-01-28T14:05:59.829Z,1.00
2023-01-28T14:09:08.497Z,0.90
2023-01-28T14:12:08.791Z,1.33
2023-01-28T14:14:44.518Z,1.08
2023-01-28T14:17:21.270Z,0.85
2023-01-28T14:19:49.177Z,0.98
2023-01-28T14:22:20.471Z,1.20
2023-01-28T14:24:47.589Z,1.20
2023-01-28T14:27:20.129Z,1.00
2023-01-28T14:30:10.876Z,0.90
2023-01-28T14:32:45.398Z,0.80
2023-01-28T14:35:18.654Z,1.20
2023-01-28T14:37:45.504Z,1.15
2023-01-28T14:40:16.747Z,1.00
2023-01-28T14:42:45.700Z,1.00
2023-01-28T14:45:41.438Z,1.10
2023-01-28T14:48:26.663Z,1.42
2023-01-28T14:51:02.293Z,1.23
2023-01-28T14:53:53.965Z,1.00
2023-01-28T14:56:39.380Z,1.02
2023-01-28T14:59:21.217Z,0.93
2023-01-28T15:01:49.631Z,1.45
2023-01-28T15:04:28.429Z,1.08
2023-01-28T15:06:55.636Z,1.30
2023-01-28T15:09:23.550Z,1.45
2023-01-28T15:11:52.498Z,1.45
2023-01-28T15:14:21.993Z,1.13
2023-01-28T15:16:49.505Z,1.70
2023-01-28T15:19:16.934Z,1.30
2023-01-28T15:21:45.506Z,1.45
2023-01-28T15:24:14.645Z,1.00
2023-01-28T15:26:47.372Z,1.25
2023-01-28T15:29:32.353Z,1.42
2023-01-28T15:31:59.077Z,1.52
2023-01-28T15:34:30.493Z,2.50
2023-01-28T15:37:00.668Z,1.30
2023-01-28T15:39:29.591Z,2.20
2023-01-28T15:41:59.667Z,1.50
2023-01-28T15:44:39.119Z,3.10
2023-01-28T15:47:18.960Z,2.80
2023-01-28T15:49:47.781Z,2.00
2023-01-28T15:52:14.773Z,1.92
2023-01-28T15:54:44.338Z,1.85
2023-01-28T15:57:22.090Z,2.20
2023-01-28T15:59:51.254Z,2.13
2023-01-28T16:02:23.648Z,2.10
2023-01-28T16:05:01.517Z,2.50
2023-01-28T16:07:30.575Z,2.40
2023-01-28T16:09:59.149Z,2.65
2023-01-28T16:12:27.009Z,2.67
2023-01-28T16:14:57.205Z,2.20
2023-01-28T16:17:29.682Z,1.80
2023-01-28T16:19:58.942Z,1.63
2023-01-28T16:22:35.066Z,1.60
2023-01-28T16:25:02.050Z,1.95
2023-01-28T16:27:29.675Z,1.55
2023-01-28T16:29:56.240Z,1.95
2023-01-28T16:32:31.790Z,1.98
2023-01-28T16:34:58.416Z,1.80
2023-01-28T16:37:28.098Z,2.10
2023-01-28T16:39:54.918Z,6.68
2023-01-28T16:42:21.581Z,1.80
2023-01-28T16:44:48.134Z,2.28
2023-01-28T16:47:14.700Z,2.20
2023-01-28T16:49:41.295Z,2.30
2023-01-28T16:52:07.839Z,2.50
2023-01-28T16:54:34.867Z,2.45
2023-01-28T16:57:01.617Z,2.38
2023-01-28T16:59:28.159Z,2.15
2023-01-28T17:01:54.672Z,2.20
2023-01-28T17:04:21.224Z,2.25
2023-01-28T17:06:48.026Z,2.10
2023-01-28T17:09:14.909Z,1.70
2023-01-28T17:11:41.865Z,2.58
2023-01-28T17:14:10.003Z,2.70
2023-01-28T17:16:37.079Z,2.92
2023-01-28T17:19:04.008Z,1.95
2023-01-28T17:21:30.655Z,1.80
2023-01-28T17:23:59.218Z,2.13
2023-01-28T17:26:26.010Z,2.15
2023-01-28T17:28:53.546Z,1.60
2023-01-28T17:31:20.861Z,2.15
2023-01-28T17:33:47.670Z,2.05
2023-01-28T17:36:14.408Z,2.40
2023-01-28T17:38:44.668Z,1.98
2023-01-28T17:41:11.927Z,2.30
2023-01-28T17:43:38.485Z,1.73
2023-01-28T17:46:12.797Z,1.90
2023-01-28T17:48:39.775Z,2.15
2023-01-28T17:51:06.945Z,2.17
2023-01-28T17:53:33.534Z,2.63
2023-01-28T17:56:00.226Z,2.50
2023-01-28T17:58:26.856Z,2.15
2023-01-28T18:00:53.650Z,2.38
2023-01-28T18:03:20.229Z,2.20
2023-01-28T18:05:57.301Z,2.47
2023-01-28T18:08:24.096Z,2.25
2023-01-28T18:10:50.759Z,1.80
2023-01-28T18:13:17.453Z,2.17
2023-01-28T18:15:44.041Z,2.20
2023-01-28T18:18:10.657Z,3.30
2023-01-28T18:20:37.388Z,2.50
2023-01-28T18:23:04.064Z,2.80
2023-01-28T18:25:30.643Z,2.47
2023-01-28T18:27:57.148Z,2.38
2023-01-28T18:30:23.838Z,2.90
2023-01-28T18:32:50.626Z,2.40
2023-01-28T18:35:17.564Z,2.88
2023-01-28T18:37:44.383Z,2.40
2023-01-28T18:40:11.602Z,2.70
2023-01-28T18:42:38.215Z,3.10
2023-01-28T18:45:05.645Z,2.92
2023-01-28T18:47:32.207Z,2.40
2023-01-28T18:49:58.913Z,3.00
2023-01-28T18:52:25.568Z,3.47
2023-01-28T18:54:52.177Z,5.47
2023-01-28T18:57:19.839Z,4.30
2023-01-28T18:59:47.413Z,3.83
2023-01-28T19:02:14.796Z,3.75
2023-01-28T19:04:41.495Z,3.65
2023-01-28T19:07:11.453Z,3.95
2023-01-28T19:09:38.489Z,4.28
2023-01-28T19:12:05.338Z,4.55
2023-01-28T19:14:32.073Z,4.10
2023-01-28T19:16:58.868Z,3.92
2023-01-28T19:19:25.736Z,3.60
2023-01-28T19:21:52.685Z,4.70
2023-01-28T19:24:19.272Z,3.80
2023-01-28T19:26:46.013Z,2.88
2023-01-28T19:29:15.516Z,3.50
2023-01-28T19:31:43.424Z,3.72
2023-01-28T19:34:10.527Z,3.40
2023-01-28T19:36:37.593Z,3.30
2023-01-28T19:39:06.924Z,3.50
2023-01-28T19:41:33.526Z,3.70
2023-01-28T19:44:00.369Z,3.70
2023-01-28T19:46:27.462Z,4.00
2023-01-28T19:48:54.539Z,3.60
2023-01-28T19:51:21.505Z,4.00
2023-01-28T19:53:50.633Z,3.70
2023-01-28T19:56:18.630Z,3.92
2023-01-28T19:58:45.836Z,3.78
2023-01-28T20:01:15.516Z,3.78
2023-01-28T20:03:42.798Z,4.65
2023-01-28T20:06:14.595Z,3.92
2023-01-28T20:08:41.567Z,4.07
2023-01-28T20:11:10.964Z,4.03
2023-01-28T20:13:39.823Z,4.65
2023-01-28T20:16:19.241Z,5.13
2023-01-28T20:18:50.902Z,4.43
2023-01-28T20:21:18.952Z,5.03
2023-01-28T20:23:47.040Z,4.57
2023-01-28T20:26:13.700Z,4.85
2023-01-28T20:28:40.316Z,3.72
2023-01-28T20:31:09.140Z,4.18
2023-01-28T20:33:36.470Z,3.03
2023-01-28T20:36:07.879Z,3.60
2023-01-28T20:38:35.605Z,3.92
2023-01-28T20:41:09.981Z,3.65
2023-01-28T20:43:37.945Z,4.57
2023-01-28T20:46:06.429Z,4.60
2023-01-28T20:48:33.619Z,4.38
2023-01-28T20:51:07.841Z,4.70
2023-01-28T20:53:34.718Z,5.00
2023-01-28T20:56:01.507Z,3.90
2023-01-28T20:58:28.168Z,4.15
2023-01-28T21:00:54.838Z,4.30
2023-01-28T21:03:21.793Z,4.00
2023-01-28T21:05:48.822Z,4.00
2023-01-28T21:08:15.814Z,4.07
2023-01-28T21:10:42.822Z,4.60
2023-01-28T21:13:10.329Z,4.22
2023-01-28T21:15:36.922Z,4.60
2023-01-28T21:18:03.866Z,4.45
2023-01-28T21:20:31.715Z,4.30
2023-01-28T21:22:58.314Z,4.32
2023-01-28T21:25:26.308Z,4.10
2023-01-28T21:27:53.218Z,4.47
2023-01-28T21:30:19.936Z,4.20
2023-01-28T21:32:46.494Z,4.45
2023-01-28T21:35:13.097Z,4.28
2023-01-28T21:37:39.723Z,5.20
2023-01-28T21:40:07.014Z,4.57
2023-01-28T21:42:35.274Z,4.72
2023-01-28T21:45:01.885Z,4.10
2023-01-28T21:47:28.548Z,4.25
2023-01-28T21:49:55.074Z,4.38
2023-01-28T21:52:22.210Z,4.75
2023-01-28T21:54:48.767Z,4.45
2023-01-28T21:57:15.339Z,4.60
2023-01-28T21:59:41.966Z,4.60
2023-01-28T22:02:13.319Z,5.07
2023-01-28T22:04:46.169Z,5.88
2023-01-28T22:07:17.173Z,4.82
2023-01-28T22:09:44.585Z,4.25
2023-01-28T22:12:11.603Z,4.70
2023-01-28T22:14:39.499Z,4.68
2023-01-28T22:17:11.413Z,4.90
2023-01-28T22:19:38.735Z,4.50
2023-01-28T22:22:05.961Z,4.63
2023-01-28T22:24:33.013Z,4.88
2023-01-28T22:26:59.734Z,4.15
2023-01-28T22:29:26.452Z,4.07
2023-01-28T22:31:53.961Z,4.57
2023-01-28T22:34:21.190Z,4.47
2023-01-28T22:36:48.051Z,5.38
2023-01-28T22:39:15.838Z,5.05
2023-01-28T22:41:43.547Z,5.10
2023-01-28T22:44:10.462Z,5.00
2023-01-28T22:46:37.121Z,5.20
2023-01-28T22:49:03.945Z,5.57
2023-01-28T22:51:32.996Z,5.60
2023-01-28T22:53:59.573Z,5.20
2023-01-28T22:56:28.278Z,5.18
2023-01-28T22:58:56.156Z,4.93
2023-01-28T23:01:23.284Z,5.30
2023-01-28T23:03:50.528Z,5.22
2023-01-28T23:06:19.812Z,5.15
2023-01-28T23:08:47.290Z,5.25
2023-01-28T23:11:25.212Z,6.10
2023-01-28T23:14:12.119Z,4.93
2023-01-28T23:16:57.575Z,5.25
2023-01-28T23:19:42.891Z,5.50
2023-01-28T23:22:31.812Z,5.78
2023-01-28T23:24:58.732Z,6.10
2023-01-28T23:27:25.631Z,5.32
2023-01-28T23:29:52.248Z,5.85
2023-01-28T23:32:20.612Z,7.30
2023-01-28T23:34:47.148Z,6.88
2023-01-28T23:37:14.073Z,6.13
2023-01-28T23:39:41.321Z,6.72
2023-01-28T23:42:13.913Z,7.05
2023-01-28T23:44:40.533Z,7.60
2023-01-28T23:47:07.520Z,7.13
2023-01-28T23:49:34.260Z,7.70
2023-01-28T23:52:01.221Z,8.65
2023-01-28T23:54:27.812Z,8.07
2023-01-28T23:56:54.627Z,8.95
2023-01-28T23:59:21.380Z,7.65
